15:01
Airports
Links
Donate
Help keep this website running!
PayPal
Bitcoin
METAR
EBBE 161425Z 25019KT 9999 FEW037 SCT140 07/M00 Q0995 BLU BLU TEMPO WHT
Current Weather Conditions at EBBE
VFR 14:25:00 16-01-18
Altimeter:29.38 hg
Temp:7.0°c 45°f
Dew point:0.0°c 32°f
Wind:19 knots, 21.9 mph, 10 m/s, from 250°
Visibility:6.21 statute miles
14000(SCT) Scattered
3700(FEW) A few
Past METAR reports
VFR 13:55:00 16-01-18
Altimeter:29.41 hg
Temp:7.0°c 45°f
Dew point:0.0°c 32°f
Wind:19 knots, 21.9 mph, 10 m/s, from 260°
Visibility:6.21 statute miles
14000(SCT) Scattered
3700(FEW) A few
EBBE 161355Z 26019KT 9999 FEW037 SCT140 07/M00 Q0996 BLU BLU TEMPO WHT
VFR 13:25:00 16-01-18
Altimeter:29.38 hg
Temp:6.0°c 43°f
Dew point:0.0°c 32°f
Wind:14 knots, 16.1 mph, 7 m/s, from 260°
Visibility:6.21 statute miles
4200(SCT) Scattered
3500(FEW) A few
EBBE 161325Z 26014KT 9999 FEW035 SCT042 06/00 Q0995 BLU BLU TEMPO WHT
VFR 12:55:00 16-01-18
Altimeter:29.41 hg
Temp:7.0°c 45°f
Dew point:0.0°c 32°f
Wind:13 knots, 15 mph, 7 m/s, from 260°
Visibility:6.21 statute miles
3900(SCT) Scattered
3200(FEW) A few
EBBE 161255Z 26013KT 9999 FEW032 SCT039 07/M00 Q0996 BLU BLU TEMPO WHT
MVFR 11:55:00 16-01-18
Altimeter:29.41 hg
Temp:6.0°c 43°f
Dew point:1.0°c 34°f
Wind:14 knots, 16.1 mph, 7 m/s, from 260°
Visibility:6.21 statute miles
3000(BKN) Broken
2400(FEW) A few
EBBE 161155Z 26014KT 9999 FEW024 BKN030 06/01 Q0996 BLU BLU TEMPO WHT
MVFR 11:25:00 16-01-18
Altimeter:29.41 hg
Temp:7.0°c 45°f
Dew point:1.0°c 34°f
Wind:13 knots, 15 mph, 7 m/s, from 260°
Visibility:6.21 statute miles
3000(BKN) Broken
2400(FEW) A few
EBBE 161125Z 26013KT 9999 FEW024 BKN030 07/01 Q0996 BLU BLU TEMPO WHT
VFR 10:55:00 16-01-18
Altimeter:29.41 hg
Temp:7.0°c 45°f
Dew point:1.0°c 34°f
Wind:17 knots, 19.6 mph, 9 m/s, from 260°
Visibility:6.21 statute miles
3500(BKN) Broken
2800(SCT) Scattered
2200(FEW) A few
EBBE 161055Z 26017KT 9999 FEW022 SCT028 BKN035 07/01 Q0996 BLU BLU TEMPO WHT
TAF
TAF EBBE 161141Z 1613/1622 27020G30KT 9999 FEW018TCU SCT025 BKN035 TEMPO 1610/1622 27025G35KT 6000 -SHRA SCT015TCU BKN017 BECMG 1615/1617 25015G25KT
Forecast at EBBE
TEMPO 10:00 16-01-18 to 22:00 16-01-18
-SHRA
Wind:25 Knots from 270°
Visibility:3.73 statute miles
1500SCT Scattered
1700BKN Broken
13:00 16-01-18 to 15:00 16-01-18
Wind:20 Knots from 270°
Visibility:6.21 statute miles
1800FEW A few
2500SCT Scattered
3500BKN Broken
BECMG 15:00 16-01-18 to 22:00 16-01-18
Wind:15 Knots from 250°
Visibility:6.21 statute miles
1800FEW A few
2500SCT Scattered
3500BKN Broken